createdAt,value
2018-09-06T00:01:50.746Z,7.70
2018-09-06T00:04:20.307Z,9.13
2018-09-06T00:06:49.797Z,7.37
2018-09-06T00:09:20.035Z,9.00
2018-09-06T00:11:49.582Z,9.63
2018-09-06T00:14:19.159Z,11.13
2018-09-06T00:16:48.649Z,8.03
2018-09-06T00:19:18.154Z,7.53
2018-09-06T00:21:47.781Z,12.67
2018-09-06T00:24:18.242Z,8.00
2018-09-06T00:26:48.585Z,9.20
2018-09-06T00:29:18.097Z,8.17
2018-09-06T00:31:47.643Z,10.77
2018-09-06T00:34:17.132Z,8.53
2018-09-06T00:36:46.692Z,7.20
2018-09-06T00:39:16.134Z,9.23
2018-09-06T00:41:45.664Z,8.53
2018-09-06T00:44:15.129Z,7.37
2018-09-06T00:46:44.621Z,9.83
2018-09-06T00:49:14.053Z,7.63
2018-09-06T00:51:43.650Z,9.70
2018-09-06T00:54:13.253Z,9.53
2018-09-06T00:56:42.861Z,8.53
2018-09-06T00:59:12.394Z,8.10
2018-09-06T01:01:41.878Z,7.53
2018-09-06T01:04:11.620Z,8.20
2018-09-06T01:06:41.869Z,8.93
2018-09-06T01:09:11.394Z,9.63
2018-09-06T01:11:40.991Z,11.13
2018-09-06T01:14:10.566Z,8.40
2018-09-06T01:16:40.065Z,17.10
2018-09-06T01:19:10.729Z,11.57
2018-09-06T01:21:40.538Z,8.97
2018-09-06T01:24:10.420Z,9.00
2018-09-06T01:26:39.944Z,8.63
2018-09-06T01:29:11.781Z,8.80
2018-09-06T01:31:41.271Z,14.27
2018-09-06T01:34:10.825Z,11.90
2018-09-06T01:36:46.571Z,9.13
2018-09-06T01:39:16.641Z,10.03
2018-09-06T01:41:47.288Z,9.43
2018-09-06T01:44:16.800Z,12.70
2018-09-06T01:46:46.458Z,9.70
2018-09-06T01:49:15.967Z,9.67
2018-09-06T01:51:45.925Z,11.33
2018-09-06T01:54:15.406Z,11.77
2018-09-06T01:56:44.878Z,10.10
2018-09-06T01:59:15.106Z,10.23
2018-09-06T02:01:44.696Z,12.67
2018-09-06T02:04:15.464Z,11.03
2018-09-06T02:06:44.998Z,8.23
2018-09-06T02:09:14.552Z,10.83
2018-09-06T02:11:44.683Z,10.70
2018-09-06T02:14:14.310Z,10.77
2018-09-06T02:16:47.558Z,13.80
2018-09-06T02:19:17.740Z,11.53
2018-09-06T02:21:48.666Z,10.87
2018-09-06T02:24:19.033Z,17.70
2018-09-06T02:26:48.521Z,11.63
2018-09-06T02:29:18.069Z,9.93
2018-09-06T02:31:47.737Z,8.73
2018-09-06T02:34:17.971Z,10.37
2018-09-06T02:36:47.580Z,8.73
2018-09-06T02:39:19.148Z,9.77
2018-09-06T02:41:48.580Z,11.20
2018-09-06T02:44:18.065Z,10.67
2018-09-06T02:46:47.515Z,12.57
2018-09-06T02:49:21.267Z,9.90
2018-09-06T02:51:50.903Z,12.60
2018-09-06T02:54:20.447Z,8.80
2018-09-06T02:56:49.957Z,8.83
2018-09-06T02:59:20.797Z,14.00
2018-09-06T03:01:50.740Z,9.87
2018-09-06T03:04:20.348Z,10.00
2018-09-06T03:06:49.884Z,9.47
2018-09-06T03:09:22.581Z,9.93
2018-09-06T03:11:58.104Z,9.80
2018-09-06T03:14:28.812Z,10.13
2018-09-06T03:16:58.733Z,10.40
2018-09-06T03:19:28.505Z,15.03
2018-09-06T03:21:58.022Z,10.40
2018-09-06T03:24:27.548Z,9.13
2018-09-06T03:26:56.971Z,13.47
2018-09-06T03:29:26.499Z,14.00
2018-09-06T03:31:56.003Z,10.73
2018-09-06T03:34:25.527Z,13.20
2018-09-06T03:36:55.737Z,10.37
2018-09-06T03:39:26.299Z,11.60
2018-09-06T03:41:57.120Z,12.77
2018-09-06T03:44:27.416Z,12.00
2018-09-06T03:46:57.138Z,12.40
2018-09-06T03:49:26.649Z,11.60
2018-09-06T03:51:56.982Z,15.73
2018-09-06T03:54:26.642Z,13.17
2018-09-06T03:56:56.269Z,13.53
2018-09-06T03:59:25.866Z,13.47
2018-09-06T04:01:55.572Z,15.47
2018-09-06T04:04:25.103Z,13.07
2018-09-06T04:06:55.299Z,14.47
2018-09-06T04:09:25.855Z,14.77
2018-09-06T04:11:55.531Z,13.20
2018-09-06T04:14:25.136Z,13.30
2018-09-06T04:16:54.690Z,15.77
2018-09-06T04:19:24.293Z,13.50
2018-09-06T04:21:54.769Z,13.50
2018-09-06T04:24:24.660Z,12.93
2018-09-06T04:26:54.220Z,13.23
2018-09-06T04:29:23.965Z,12.77
2018-09-06T04:31:54.407Z,13.33
2018-09-06T04:34:24.887Z,15.30
2018-09-06T04:36:54.470Z,11.60
2018-09-06T04:39:24.096Z,13.00
2018-09-06T04:41:53.861Z,11.50
2018-09-06T04:44:23.468Z,13.93
2018-09-06T04:46:52.980Z,17.57
2018-09-06T04:49:22.725Z,19.70
2018-09-06T04:51:54.276Z,10.90
2018-09-06T04:54:24.101Z,13.07
2018-09-06T04:56:53.774Z,15.57
2018-09-06T04:59:25.346Z,11.13
2018-09-06T05:01:54.922Z,13.10
2018-09-06T05:04:25.072Z,14.43
2018-09-06T05:06:54.599Z,13.10
2018-09-06T05:09:27.157Z,12.97
2018-09-06T05:11:56.693Z,12.33
2018-09-06T05:14:26.970Z,11.77
2018-09-06T05:16:56.552Z,14.67
2018-09-06T05:19:27.058Z,15.30
2018-09-06T05:21:56.626Z,17.17
2018-09-06T05:25:56.705Z,14.60
2018-09-06T05:28:30.260Z,11.90
2018-09-06T05:30:59.729Z,14.10
2018-09-06T05:33:29.813Z,13.00
2018-09-06T05:35:59.419Z,28.67
2018-09-06T05:38:29.112Z,11.83
2018-09-06T05:40:59.760Z,11.97
2018-09-06T05:43:29.662Z,14.13
2018-09-06T05:45:59.123Z,14.77
2018-09-06T05:48:28.699Z,15.97
2018-09-06T05:50:58.215Z,14.57
2018-09-06T05:53:28.785Z,14.13
2018-09-06T05:55:58.537Z,14.03
2018-09-06T05:58:28.774Z,13.87
2018-09-06T06:00:58.425Z,11.17
2018-09-06T06:03:28.218Z,13.03
2018-09-06T06:05:58.009Z,12.63
2018-09-06T06:08:38.255Z,14.30
2018-09-06T06:11:07.717Z,13.80
2018-09-06T06:13:38.260Z,13.33
2018-09-06T06:16:08.042Z,15.83
2018-09-06T06:18:37.637Z,13.57
2018-09-06T06:21:07.719Z,12.70
2018-09-06T06:23:37.297Z,21.67
2018-09-06T06:26:07.387Z,23.13
2018-09-06T06:28:36.991Z,19.17
2018-09-06T06:31:06.528Z,16.47
2018-09-06T06:33:36.040Z,15.87
2018-09-06T06:36:05.790Z,12.83
2018-09-06T06:38:35.292Z,14.03
2018-09-06T06:41:08.932Z,12.73
2018-09-06T06:43:38.415Z,12.90
2018-09-06T06:46:08.090Z,11.77
2018-09-06T06:48:37.577Z,15.57
2018-09-06T06:51:06.985Z,17.00
2018-09-06T06:53:36.589Z,13.83
2018-09-06T06:56:06.239Z,14.10
2018-09-06T06:58:35.725Z,13.20
2018-09-06T07:01:05.319Z,17.70
2018-09-06T07:03:34.864Z,16.13
2018-09-06T07:06:04.368Z,19.10
2018-09-06T07:08:33.792Z,20.87
2018-09-06T07:11:07.928Z,16.80
2018-09-06T07:13:39.625Z,19.90
2018-09-06T07:16:09.361Z,16.10
2018-09-06T07:18:39.081Z,18.20
2018-09-06T07:21:09.635Z,21.13
2018-09-06T07:23:39.154Z,18.67
2018-09-06T07:26:08.679Z,17.47
2018-09-06T07:28:38.266Z,16.97
2018-09-06T07:31:07.776Z,18.37
2018-09-06T07:33:38.271Z,19.30
2018-09-06T07:36:07.835Z,19.63
2018-09-06T07:38:37.443Z,18.37
2018-09-06T07:41:07.039Z,18.50
2018-09-06T07:43:36.434Z,14.00
2018-09-06T07:46:08.832Z,17.67
2018-09-06T07:48:38.411Z,19.07
2018-09-06T07:51:08.995Z,17.00
2018-09-06T07:53:38.601Z,21.87
2018-09-06T07:56:08.454Z,20.43
2018-09-06T07:58:37.995Z,22.13
2018-09-06T08:01:07.623Z,26.37
2018-09-06T08:03:37.287Z,24.33
2018-09-06T08:06:06.878Z,19.23
2018-09-06T08:08:36.362Z,19.87
2018-09-06T08:11:06.548Z,20.07
2018-09-06T08:13:36.055Z,19.80
2018-09-06T08:16:05.726Z,18.17
2018-09-06T08:18:35.247Z,25.20
2018-09-06T08:21:05.244Z,25.83
2018-09-06T08:23:35.630Z,27.53
2018-09-06T08:26:05.350Z,26.27
2018-09-06T08:28:35.463Z,30.10
2018-09-06T08:31:06.121Z,31.73
2018-09-06T08:33:37.614Z,31.10
2018-09-06T08:36:09.228Z,28.47
2018-09-06T08:38:39.165Z,25.97
2018-09-06T08:41:09.775Z,33.07
2018-09-06T08:43:43.289Z,32.17
2018-09-06T08:46:16.977Z,29.70
2018-09-06T08:48:56.317Z,31.10
2018-09-06T08:51:25.792Z,29.37
2018-09-06T08:53:55.315Z,29.93
2018-09-06T08:56:24.901Z,25.20
2018-09-06T08:58:54.417Z,28.83
2018-09-06T09:01:29.895Z,30.13
2018-09-06T09:03:59.495Z,28.53
2018-09-06T09:06:29.001Z,30.33
2018-09-06T09:08:58.488Z,32.63
2018-09-06T09:11:28.018Z,28.20
2018-09-06T09:13:57.979Z,31.60
2018-09-06T09:16:27.432Z,29.20
2018-09-06T09:18:57.726Z,32.90
2018-09-06T09:21:27.533Z,26.37
2018-09-06T09:23:57.788Z,26.93
2018-09-06T09:26:27.350Z,26.87
2018-09-06T09:28:56.916Z,30.07
2018-09-06T09:31:27.609Z,36.83
2018-09-06T09:33:57.300Z,32.80
2018-09-06T09:36:26.800Z,29.00
2018-09-06T09:38:56.516Z,32.37
2018-09-06T09:41:26.165Z,30.53
2018-09-06T09:43:56.625Z,30.00
2018-09-06T09:51:24.488Z,29.47
2018-09-06T09:53:56.045Z,24.80
2018-09-06T09:56:27.571Z,28.73
2018-09-06T09:58:57.281Z,28.27
2018-09-06T10:01:33.742Z,25.10
2018-09-06T10:04:08.746Z,27.43
2018-09-06T10:06:43.587Z,30.37
2018-09-06T10:09:20.016Z,32.20
2018-09-06T10:11:49.513Z,30.97
2018-09-06T10:14:23.002Z,27.83
2018-09-06T10:16:52.567Z,28.03
2018-09-06T10:19:23.633Z,26.07
2018-09-06T10:21:55.767Z,28.00
2018-09-06T10:24:25.317Z,24.40
2018-09-06T10:26:55.047Z,28.57
2018-09-06T10:29:24.656Z,29.60
2018-09-06T10:31:54.271Z,25.97
2018-09-06T10:34:23.849Z,25.67
2018-09-06T10:36:54.423Z,28.60
2018-09-06T10:39:24.204Z,27.70
2018-09-06T10:41:57.582Z,27.10
2018-09-06T10:44:28.202Z,27.63
2018-09-06T10:46:57.764Z,26.23
2018-09-06T10:49:27.348Z,28.00
2018-09-06T10:51:56.897Z,25.93
2018-09-06T10:54:27.519Z,26.77
2018-09-06T10:56:58.279Z,28.53
2018-09-06T10:59:28.354Z,26.60
2018-09-06T11:01:57.906Z,28.47
2018-09-06T11:04:28.654Z,24.10
2018-09-06T11:06:58.352Z,24.47
2018-09-06T11:09:29.073Z,25.27
2018-09-06T11:11:58.761Z,26.07
2018-09-06T11:14:28.396Z,24.60
2018-09-06T11:16:57.937Z,21.87
2018-09-06T11:19:28.501Z,23.50
2018-09-06T11:21:59.244Z,22.87
2018-09-06T11:24:29.826Z,24.40
2018-09-06T11:26:59.989Z,23.23
2018-09-06T11:29:29.624Z,26.27
2018-09-06T11:31:59.310Z,25.43
2018-09-06T11:34:33.008Z,25.73
2018-09-06T11:37:02.996Z,29.37
2018-09-06T11:39:33.609Z,25.47
2018-09-06T11:42:03.228Z,28.87
2018-09-06T11:44:32.825Z,25.33
2018-09-06T11:47:02.489Z,23.43
2018-09-06T11:49:32.744Z,27.80
2018-09-06T11:52:06.922Z,25.23
2018-09-06T11:54:36.398Z,28.57
2018-09-06T11:57:06.117Z,24.50
2018-09-06T11:59:35.624Z,24.83
2018-09-06T12:02:05.446Z,23.73
2018-09-06T12:04:35.030Z,24.87
2018-09-06T12:07:04.741Z,23.10
2018-09-06T12:09:34.304Z,21.03
2018-09-06T12:12:04.019Z,23.03
2018-09-06T12:14:33.490Z,25.50
2018-09-06T12:17:04.109Z,23.57
2018-09-06T12:19:33.807Z,25.57
2018-09-06T12:22:03.739Z,25.00
2018-09-06T12:24:33.486Z,24.60
2018-09-06T12:27:03.026Z,21.37
2018-09-06T12:29:32.652Z,27.20
2018-09-06T12:32:02.352Z,20.10
2018-09-06T12:34:31.869Z,22.40
2018-09-06T12:37:01.619Z,24.23
2018-09-06T12:39:31.228Z,25.27
2018-09-06T12:42:01.021Z,26.57
2018-09-06T12:44:31.290Z,22.37
2018-09-06T12:47:00.799Z,25.00
2018-09-06T12:49:30.694Z,27.50
2018-09-06T12:52:01.394Z,25.83
2018-09-06T12:54:31.055Z,38.30
2018-09-06T12:57:00.675Z,23.53
2018-09-06T12:59:32.539Z,18.73
2018-09-06T13:02:02.081Z,22.80
2018-09-06T13:04:31.718Z,20.77
2018-09-06T13:07:01.270Z,21.57
2018-09-06T13:09:32.961Z,19.73
2018-09-06T13:12:02.592Z,25.23
2018-09-06T13:14:32.830Z,25.27
2018-09-06T13:17:05.531Z,27.07
2018-09-06T13:19:36.102Z,22.53
2018-09-06T13:22:05.846Z,22.57
2018-09-06T13:24:36.499Z,28.33
2018-09-06T13:27:06.234Z,28.67
2018-09-06T13:29:36.220Z,24.83
2018-09-06T13:32:05.738Z,24.87
2018-09-06T13:34:35.209Z,26.33
2018-09-06T13:37:04.770Z,30.40
2018-09-06T13:39:34.377Z,30.17
2018-09-06T13:42:03.878Z,25.20
2018-09-06T13:44:34.255Z,24.17
2018-09-06T13:47:04.194Z,25.87
2018-09-06T13:49:33.807Z,30.83
2018-09-06T13:52:03.374Z,23.57
2018-09-06T13:54:33.236Z,24.37
2018-09-06T13:57:02.830Z,23.70
2018-09-06T13:59:32.572Z,23.80
2018-09-06T14:02:02.250Z,25.53
2018-09-06T14:04:31.747Z,25.40
2018-09-06T14:07:01.345Z,21.90
2018-09-06T14:09:31.403Z,22.23
2018-09-06T14:12:02.317Z,23.97
2018-09-06T14:14:32.144Z,23.73
2018-09-06T14:17:03.717Z,33.80
2018-09-06T14:19:33.882Z,30.50
2018-09-06T14:22:03.469Z,29.97
2018-09-06T14:24:33.013Z,24.33
2018-09-06T14:27:03.695Z,21.93
2018-09-06T14:29:33.405Z,16.00
2018-09-06T14:32:03.010Z,18.40
2018-09-06T14:34:37.352Z,15.10
2018-09-06T14:37:07.034Z,14.73
2018-09-06T14:39:36.872Z,17.97
2018-09-06T14:42:06.630Z,17.47
2018-09-06T14:44:36.802Z,14.40
2018-09-06T14:47:07.309Z,14.97
2018-09-06T14:49:36.927Z,16.67
2018-09-06T14:52:06.463Z,19.53
2018-09-06T14:54:36.384Z,15.17
2018-09-06T14:57:06.658Z,15.57
2018-09-06T14:59:36.228Z,18.10
2018-09-06T15:02:09.260Z,16.23
2018-09-06T15:04:39.179Z,14.97
2018-09-06T15:07:09.767Z,21.60
2018-09-06T15:09:39.389Z,18.67
2018-09-06T15:12:09.737Z,17.87
2018-09-06T15:14:41.376Z,21.93
2018-09-06T15:17:11.975Z,18.33
2018-09-06T15:19:41.600Z,16.97
2018-09-06T15:22:11.214Z,15.33
2018-09-06T15:24:40.992Z,19.63
2018-09-06T15:27:10.676Z,18.13
2018-09-06T15:29:40.477Z,16.67
2018-09-06T15:32:10.035Z,18.00
2018-09-06T15:34:39.685Z,13.37
2018-09-06T15:37:09.239Z,14.27
2018-09-06T15:39:43.112Z,25.30
2018-09-06T15:42:17.249Z,16.60
2018-09-06T15:44:48.806Z,16.67
2018-09-06T15:47:18.477Z,14.47
2018-09-06T15:49:48.185Z,14.23
2018-09-06T15:52:17.831Z,20.30
2018-09-06T15:54:52.415Z,15.90
2018-09-06T15:57:23.120Z,15.67
2018-09-06T15:59:52.750Z,15.00
2018-09-06T16:02:23.415Z,15.33
2018-09-06T16:04:53.285Z,13.97
2018-09-06T16:07:23.149Z,13.40
2018-09-06T16:09:52.855Z,13.57
2018-09-06T16:12:22.642Z,12.73
2018-09-06T16:14:52.538Z,11.90
2018-09-06T16:17:22.068Z,15.17
2018-09-06T16:19:51.958Z,12.27
2018-09-06T16:22:24.410Z,11.63
2018-09-06T16:24:54.060Z,14.13
2018-09-06T16:27:23.513Z,12.17
2018-09-06T16:29:53.262Z,14.33
2018-09-06T16:32:27.097Z,13.90
2018-09-06T16:34:58.924Z,9.07
2018-09-06T16:37:29.463Z,10.67
2018-09-06T16:39:59.050Z,11.97
2018-09-06T16:42:32.908Z,9.43
2018-09-06T16:45:02.631Z,12.87
2018-09-06T16:47:35.263Z,12.80
2018-09-06T16:50:05.049Z,14.50
2018-09-06T16:52:34.581Z,9.60
2018-09-06T16:55:04.295Z,12.77
2018-09-06T16:57:35.000Z,9.27
2018-09-06T17:00:05.208Z,9.00
2018-09-06T17:02:36.854Z,8.90
2018-09-06T17:05:07.163Z,9.77
2018-09-06T17:07:36.775Z,9.93
2018-09-06T17:10:06.883Z,8.73
2018-09-06T17:12:36.415Z,7.27
2018-09-06T17:15:06.092Z,8.70
2018-09-06T17:17:35.588Z,8.77
2018-09-06T17:20:05.466Z,10.00
2018-09-06T17:22:37.011Z,8.47
2018-09-06T17:25:06.830Z,9.50
2018-09-06T17:27:36.443Z,8.07
2018-09-06T17:30:06.665Z,8.17
2018-09-06T17:32:36.284Z,11.10
2018-09-06T17:35:05.949Z,11.57
2018-09-06T17:37:35.436Z,14.07
2018-09-06T17:40:05.063Z,9.17
2018-09-06T17:42:35.513Z,11.37
2018-09-06T17:45:05.012Z,12.37
2018-09-06T17:47:34.795Z,9.53
2018-09-06T17:50:04.286Z,11.57
2018-09-06T17:52:34.455Z,9.53
2018-09-06T17:55:05.139Z,13.47
2018-09-06T17:57:34.841Z,9.53
2018-09-06T18:00:09.218Z,9.43
2018-09-06T18:02:38.892Z,9.93
2018-09-06T18:05:08.372Z,12.90
2018-09-06T18:07:38.554Z,10.67
2018-09-06T18:10:08.254Z,11.60
2018-09-06T18:12:37.978Z,18.67
2018-09-06T18:15:08.223Z,18.67
2018-09-06T18:17:38.050Z,20.00
2018-09-06T18:20:07.605Z,13.20
2018-09-06T18:22:37.463Z,8.03
2018-09-06T18:25:07.091Z,11.17
2018-09-06T18:27:36.663Z,8.40
2018-09-06T18:30:06.486Z,10.50
2018-09-06T18:32:38.233Z,10.30
2018-09-06T18:35:07.852Z,6.70
2018-09-06T18:37:37.506Z,8.23
2018-09-06T18:40:07.271Z,8.47
2018-09-06T18:42:37.655Z,8.43
2018-09-06T18:45:07.632Z,8.50
2018-09-06T18:47:37.284Z,11.40
2018-09-06T18:50:07.030Z,9.47
2018-09-06T18:52:36.689Z,9.53
2018-09-06T18:55:07.953Z,10.63
2018-09-06T18:57:37.481Z,11.80
2018-09-06T19:00:07.005Z,9.37
2018-09-06T19:02:36.513Z,8.27
2018-09-06T19:05:07.448Z,9.07
2018-09-06T19:07:38.466Z,8.27
2018-09-06T19:10:08.276Z,11.47
2018-09-06T19:12:38.774Z,16.77
2018-09-06T19:15:08.317Z,8.80
2018-09-06T19:17:38.765Z,9.60
2018-09-06T19:20:08.532Z,10.33
2018-09-06T19:22:38.663Z,9.17
2018-09-06T19:25:09.656Z,11.50
2018-09-06T19:27:39.205Z,9.50
2018-09-06T19:30:09.928Z,8.80
2018-09-06T19:32:39.488Z,9.57
2018-09-06T19:35:11.612Z,10.00
2018-09-06T19:37:41.875Z,9.27
2018-09-06T19:40:16.031Z,9.50
2018-09-06T19:42:46.533Z,9.57
2018-09-06T19:45:16.068Z,11.00
2018-09-06T19:47:46.695Z,9.83
2018-09-06T19:50:16.998Z,11.17
2018-09-06T19:52:48.548Z,8.87
2018-09-06T19:55:18.279Z,8.50
2018-09-06T19:57:48.717Z,8.83
2018-09-06T20:00:19.511Z,8.87
2018-09-06T20:02:50.265Z,8.13
2018-09-06T20:05:22.517Z,8.30
2018-09-06T20:07:53.058Z,9.83
2018-09-06T20:10:23.063Z,8.10
2018-09-06T20:12:52.594Z,9.83
2018-09-06T20:15:22.292Z,10.73
2018-09-06T20:17:52.881Z,10.17
2018-09-06T20:20:22.603Z,9.90
2018-09-06T20:22:52.227Z,9.80
2018-09-06T20:25:21.869Z,8.13
2018-09-06T20:27:51.431Z,8.73
2018-09-06T20:30:20.930Z,10.50
2018-09-06T20:32:50.554Z,10.70
2018-09-06T20:35:24.912Z,12.80
2018-09-06T20:37:59.007Z,8.90
2018-09-06T20:40:28.542Z,9.87
2018-09-06T20:42:58.759Z,11.57
2018-09-06T20:45:29.525Z,11.57
2018-09-06T20:47:59.121Z,17.37
2018-09-06T20:50:31.418Z,13.13
2018-09-06T20:53:03.732Z,15.17
2018-09-06T20:55:33.341Z,13.73
2018-09-06T20:58:03.146Z,12.13
2018-09-06T21:00:32.713Z,16.37
2018-09-06T21:03:02.282Z,16.53
2018-09-06T21:05:32.816Z,15.53
2018-09-06T21:08:02.402Z,15.30
2018-09-06T21:10:31.999Z,17.20
2018-09-06T21:13:01.718Z,13.13
2018-09-06T21:15:31.312Z,13.87
2018-09-06T21:18:01.143Z,12.43
2018-09-06T21:20:30.703Z,13.50
2018-09-06T21:23:00.285Z,12.30
2018-09-06T21:25:29.851Z,15.17
2018-09-06T21:27:59.461Z,12.20
2018-09-06T21:30:28.981Z,12.60
2018-09-06T21:32:58.523Z,12.93
2018-09-06T21:35:28.006Z,13.80
2018-09-06T21:37:58.264Z,13.47
2018-09-06T21:40:28.416Z,18.47
2018-09-06T21:42:59.990Z,12.87
2018-09-06T21:45:29.492Z,14.20
2018-09-06T21:47:59.011Z,21.27
2018-09-06T21:50:28.610Z,14.13
2018-09-06T21:52:58.144Z,13.47
2018-09-06T21:55:27.652Z,16.27
2018-09-06T21:57:57.248Z,12.73
2018-09-06T22:00:27.143Z,13.43
2018-09-06T22:03:01.947Z,11.83
2018-09-06T22:05:32.388Z,13.37
2018-09-06T22:08:02.208Z,11.77
2018-09-06T22:10:31.743Z,12.43
2018-09-06T22:13:01.425Z,13.77
2018-09-06T22:15:31.099Z,12.63
2018-09-06T22:18:02.686Z,11.67
2018-09-06T22:20:36.031Z,11.70
2018-09-06T22:23:09.575Z,12.03
2018-09-06T22:25:40.059Z,11.17
2018-09-06T22:28:10.614Z,12.80
2018-09-06T22:30:42.168Z,11.17
2018-09-06T22:33:11.700Z,12.27
2018-09-06T22:35:41.593Z,12.40
2018-09-06T22:38:11.146Z,12.47
2018-09-06T22:40:40.601Z,11.03
2018-09-06T22:43:10.166Z,15.23
2018-09-06T22:45:43.937Z,11.87
2018-09-06T22:48:13.970Z,13.03
2018-09-06T22:50:43.357Z,13.23
2018-09-06T22:53:15.115Z,11.93
2018-09-06T22:55:44.676Z,12.13
2018-09-06T22:58:14.301Z,12.50
2018-09-06T23:00:43.798Z,13.43
2018-09-06T23:03:18.546Z,11.73
2018-09-06T23:05:48.119Z,12.67
2018-09-06T23:08:17.666Z,12.83
2018-09-06T23:10:47.286Z,11.10
2018-09-06T23:13:16.913Z,11.87
2018-09-06T23:15:46.339Z,14.23
2018-09-06T23:18:15.922Z,11.13
2018-09-06T23:20:45.511Z,12.10
2018-09-06T23:23:15.534Z,13.67
2018-09-06T23:25:45.132Z,12.33
2018-09-06T23:28:15.113Z,11.23
2018-09-06T23:30:45.618Z,13.30
2018-09-06T23:33:15.184Z,12.90
2018-09-06T23:35:45.347Z,13.50
2018-09-06T23:38:17.693Z,13.93
2018-09-06T23:40:52.608Z,12.33
2018-09-06T23:43:23.948Z,12.97
2018-09-06T23:45:56.843Z,14.20
2018-09-06T23:48:29.453Z,14.10
2018-09-06T23:50:59.477Z,13.17
2018-09-06T23:53:29.387Z,15.33
2018-09-06T23:55:59.025Z,13.80
2018-09-06T23:58:28.625Z,16.17
